sensor_id;sensor_type;location;lat;lon;timestamp;temperature;humidity
30851;DHT22;17567;48.382;9.102;2023-02-28T00:02:58;-2.60;99.90
30851;DHT22;17567;48.382;9.102;2023-02-28T00:07:59;-2.60;99.90
30851;DHT22;17567;48.382;9.102;2023-02-28T00:13:03;-2.60;99.90
30851;DHT22;17567;48.382;9.102;2023-02-28T00:18:04;-2.70;99.90
30851;DHT22;17567;48.382;9.102;2023-02-28T00:23:05;-2.60;99.90
30851;DHT22;17567;48.382;9.102;2023-02-28T00:28:06;-2.60;99.90
30851;DHT22;17567;48.382;9.102;2023-02-28T00:33:06;-2.70;99.90
30851;DHT22;17567;48.382;9.102;2023-02-28T00:38:07;-2.70;99.90
30851;DHT22;17567;48.382;9.102;2023-02-28T00:43:07;-2.80;99.90
30851;DHT22;17567;48.382;9.102;2023-02-28T00:48:08;-2.80;99.90
30851;DHT22;17567;48.382;9.102;2023-02-28T00:53:09;-2.90;99.90
30851;DHT22;17567;48.382;9.102;2023-02-28T00:58:09;-2.90;99.90
30851;DHT22;17567;48.382;9.102;2023-02-28T01:03:10;-3.00;99.90
30851;DHT22;17567;48.382;9.102;2023-02-28T01:08:11;-3.10;99.90
30851;DHT22;17567;48.382;9.102;2023-02-28T01:13:12;-3.20;99.90
30851;DHT22;17567;48.382;9.102;2023-02-28T01:18:13;-3.20;99.90
30851;DHT22;17567;48.382;9.102;2023-02-28T01:23:14;-3.30;99.90
30851;DHT22;17567;48.382;9.102;2023-02-28T01:28:15;-3.30;99.90
30851;DHT22;17567;48.382;9.102;2023-02-28T01:33:16;-3.40;99.90
30851;DHT22;17567;48.382;9.102;2023-02-28T01:38:16;-3.50;99.90
30851;DHT22;17567;48.382;9.102;2023-02-28T01:43:27;-3.60;99.90
30851;DHT22;17567;48.382;9.102;2023-02-28T01:48:32;-3.50;99.90
30851;DHT22;17567;48.382;9.102;2023-02-28T01:53:37;-3.40;99.90
30851;DHT22;17567;48.382;9.102;2023-02-28T01:58:39;-3.40;99.90
30851;DHT22;17567;48.382;9.102;2023-02-28T02:03:40;-3.50;99.90
30851;DHT22;17567;48.382;9.102;2023-02-28T02:08:40;-3.50;99.90
30851;DHT22;17567;48.382;9.102;2023-02-28T02:19:22;-3.60;99.90
30851;DHT22;17567;48.382;9.102;2023-02-28T02:35:31;-3.60;99.90
30851;DHT22;17567;48.382;9.102;2023-02-28T02:40:40;-3.50;99.90
30851;DHT22;17567;48.382;9.102;2023-02-28T02:45:48;-3.60;99.90
30851;DHT22;17567;48.382;9.102;2023-02-28T02:50:54;-3.60;99.90
30851;DHT22;17567;48.382;9.102;2023-02-28T02:55:56;-3.60;99.90
30851;DHT22;17567;48.382;9.102;2023-02-28T03:01:00;-3.70;99.90
30851;DHT22;17567;48.382;9.102;2023-02-28T03:06:02;-3.70;99.90
30851;DHT22;17567;48.382;9.102;2023-02-28T03:11:12;-3.70;99.90
30851;DHT22;17567;48.382;9.102;2023-02-28T03:26:58;-3.90;99.90
30851;DHT22;17567;48.382;9.102;2023-02-28T03:32:11;-3.80;99.90
30851;DHT22;17567;48.382;9.102;2023-02-28T03:37:20;-3.80;99.90
30851;DHT22;17567;48.382;9.102;2023-02-28T03:42:26;-3.90;99.90
30851;DHT22;17567;48.382;9.102;2023-02-28T03:47:38;-3.80;99.90
30851;DHT22;17567;48.382;9.102;2023-02-28T03:52:47;-3.80;99.90
30851;DHT22;17567;48.382;9.102;2023-02-28T03:58:03;-3.80;99.90
30851;DHT22;17567;48.382;9.102;2023-02-28T04:03:05;-3.80;99.90
30851;DHT22;17567;48.382;9.102;2023-02-28T04:08:07;-3.70;99.90
30851;DHT22;17567;48.382;9.102;2023-02-28T04:13:08;-3.70;99.90
30851;DHT22;17567;48.382;9.102;2023-02-28T04:18:09;-3.80;99.90
30851;DHT22;17567;48.382;9.102;2023-02-28T04:23:09;-3.80;99.90
30851;DHT22;17567;48.382;9.102;2023-02-28T04:28:10;-3.80;99.90
30851;DHT22;17567;48.382;9.102;2023-02-28T04:33:10;-3.80;99.90
30851;DHT22;17567;48.382;9.102;2023-02-28T04:38:11;-3.80;99.90
30851;DHT22;17567;48.382;9.102;2023-02-28T04:43:12;-3.80;99.90
30851;DHT22;17567;48.382;9.102;2023-02-28T04:48:13;-3.80;99.90
30851;DHT22;17567;48.382;9.102;2023-02-28T04:53:13;-3.70;99.90
30851;DHT22;17567;48.382;9.102;2023-02-28T04:58:14;-3.80;99.90
30851;DHT22;17567;48.382;9.102;2023-02-28T05:03:14;-3.70;99.90
30851;DHT22;17567;48.382;9.102;2023-02-28T05:08:15;-3.70;99.90
30851;DHT22;17567;48.382;9.102;2023-02-28T05:13:15;-3.70;99.90
30851;DHT22;17567;48.382;9.102;2023-02-28T05:18:16;-3.70;99.90
30851;DHT22;17567;48.382;9.102;2023-02-28T05:23:17;-3.70;99.90
30851;DHT22;17567;48.382;9.102;2023-02-28T05:28:20;-3.70;99.90
30851;DHT22;17567;48.382;9.102;2023-02-28T05:33:21;-3.60;99.90
30851;DHT22;17567;48.382;9.102;2023-02-28T05:38:21;-3.60;99.90
30851;DHT22;17567;48.382;9.102;2023-02-28T05:43:22;-3.60;99.90
30851;DHT22;17567;48.382;9.102;2023-02-28T05:48:23;-3.60;99.90
30851;DHT22;17567;48.382;9.102;2023-02-28T05:53:26;-3.60;99.90
30851;DHT22;17567;48.382;9.102;2023-02-28T05:58:27;-3.70;99.90
30851;DHT22;17567;48.382;9.102;2023-02-28T06:03:30;-3.50;99.90
30851;DHT22;17567;48.382;9.102;2023-02-28T06:08:31;-3.50;99.90
30851;DHT22;17567;48.382;9.102;2023-02-28T06:13:31;-3.50;99.90
30851;DHT22;17567;48.382;9.102;2023-02-28T06:18:32;-3.50;99.90
30851;DHT22;17567;48.382;9.102;2023-02-28T06:23:33;-3.40;99.90
30851;DHT22;17567;48.382;9.102;2023-02-28T06:28:33;-3.50;99.90
30851;DHT22;17567;48.382;9.102;2023-02-28T06:33:34;-3.40;99.90
30851;DHT22;17567;48.382;9.102;2023-02-28T06:38:35;-3.30;99.90
30851;DHT22;17567;48.382;9.102;2023-02-28T06:43:39;-3.30;99.90
30851;DHT22;17567;48.382;9.102;2023-02-28T06:48:40;-3.30;99.90
30851;DHT22;17567;48.382;9.102;2023-02-28T06:53:41;-3.20;99.90
30851;DHT22;17567;48.382;9.102;2023-02-28T06:58:45;-3.10;99.90
30851;DHT22;17567;48.382;9.102;2023-02-28T07:03:46;-3.00;99.90
30851;DHT22;17567;48.382;9.102;2023-02-28T07:08:47;-2.80;99.90
30851;DHT22;17567;48.382;9.102;2023-02-28T07:13:48;-2.70;99.90
30851;DHT22;17567;48.382;9.102;2023-02-28T07:18:51;-2.70;99.90
30851;DHT22;17567;48.382;9.102;2023-02-28T07:23:52;-2.60;99.90
30851;DHT22;17567;48.382;9.102;2023-02-28T07:28:52;-2.60;99.90
30851;DHT22;17567;48.382;9.102;2023-02-28T07:33:53;-2.40;99.90
30851;DHT22;17567;48.382;9.102;2023-02-28T07:38:54;-2.40;99.90
30851;DHT22;17567;48.382;9.102;2023-02-28T07:43:55;-2.40;99.90
30851;DHT22;17567;48.382;9.102;2023-02-28T07:48:57;-2.20;99.90
30851;DHT22;17567;48.382;9.102;2023-02-28T07:53:59;-2.10;99.90
30851;DHT22;17567;48.382;9.102;2023-02-28T07:59:00;-2.00;99.90
30851;DHT22;17567;48.382;9.102;2023-02-28T08:04:01;-2.00;99.90
30851;DHT22;17567;48.382;9.102;2023-02-28T08:09:02;-2.00;99.90
30851;DHT22;17567;48.382;9.102;2023-02-28T08:14:03;-1.90;99.90
30851;DHT22;17567;48.382;9.102;2023-02-28T08:19:04;-1.90;99.90
30851;DHT22;17567;48.382;9.102;2023-02-28T08:24:06;-1.90;99.90
30851;DHT22;17567;48.382;9.102;2023-02-28T08:29:07;-1.90;99.90
30851;DHT22;17567;48.382;9.102;2023-02-28T08:34:09;-1.90;99.90
30851;DHT22;17567;48.382;9.102;2023-02-28T08:39:11;-1.70;99.90
30851;DHT22;17567;48.382;9.102;2023-02-28T08:44:12;-1.60;99.90
30851;DHT22;17567;48.382;9.102;2023-02-28T08:49:12;-1.70;99.90
30851;DHT22;17567;48.382;9.102;2023-02-28T08:54:13;-1.70;99.90
30851;DHT22;17567;48.382;9.102;2023-02-28T08:59:16;-1.70;99.90
30851;DHT22;17567;48.382;9.102;2023-02-28T09:04:17;-1.70;99.90
30851;DHT22;17567;48.382;9.102;2023-02-28T09:09:18;-1.70;99.90
30851;DHT22;17567;48.382;9.102;2023-02-28T09:14:18;-1.60;99.90
30851;DHT22;17567;48.382;9.102;2023-02-28T09:19:20;-1.50;99.90
30851;DHT22;17567;48.382;9.102;2023-02-28T09:24:20;-1.40;99.90
30851;DHT22;17567;48.382;9.102;2023-02-28T09:29:21;-1.30;99.90
30851;DHT22;17567;48.382;9.102;2023-02-28T09:34:22;-1.30;99.90
30851;DHT22;17567;48.382;9.102;2023-02-28T09:39:23;-1.20;99.90
30851;DHT22;17567;48.382;9.102;2023-02-28T09:44:40;-1.10;99.90
30851;DHT22;17567;48.382;9.102;2023-02-28T09:49:44;-1.00;99.90
30851;DHT22;17567;48.382;9.102;2023-02-28T09:54:46;-1.00;99.90
30851;DHT22;17567;48.382;9.102;2023-02-28T10:05:31;-0.90;99.90
30851;DHT22;17567;48.382;9.102;2023-02-28T10:10:44;-0.70;99.90
30851;DHT22;17567;48.382;9.102;2023-02-28T10:15:47;-0.50;99.90
30851;DHT22;17567;48.382;9.102;2023-02-28T10:20:51;-0.40;99.90
30851;DHT22;17567;48.382;9.102;2023-02-28T10:25:59;-0.30;99.90
30851;DHT22;17567;48.382;9.102;2023-02-28T10:31:00;-0.30;99.90
30851;DHT22;17567;48.382;9.102;2023-02-28T10:36:02;-0.20;99.90
30851;DHT22;17567;48.382;9.102;2023-02-28T10:46:15;0.10;99.90
30851;DHT22;17567;48.382;9.102;2023-02-28T10:51:38;0.20;99.90
30851;DHT22;17567;48.382;9.102;2023-02-28T10:56:42;0.20;99.90
30851;DHT22;17567;48.382;9.102;2023-02-28T11:01:46;0.30;99.90
30851;DHT22;17567;48.382;9.102;2023-02-28T11:07:19;0.30;99.90
30851;DHT22;17567;48.382;9.102;2023-02-28T11:12:26;0.40;99.90
30851;DHT22;17567;48.382;9.102;2023-02-28T11:17:30;0.50;99.90
30851;DHT22;17567;48.382;9.102;2023-02-28T11:22:35;0.70;99.90
30851;DHT22;17567;48.382;9.102;2023-02-28T11:27:48;0.80;99.90
30851;DHT22;17567;48.382;9.102;2023-02-28T11:32:49;0.90;99.90
30851;DHT22;17567;48.382;9.102;2023-02-28T11:37:50;1.00;99.90
30851;DHT22;17567;48.382;9.102;2023-02-28T11:43:06;1.00;99.90
30851;DHT22;17567;48.382;9.102;2023-02-28T11:48:22;1.10;99.90
30851;DHT22;17567;48.382;9.102;2023-02-28T11:59:43;1.10;99.90
30851;DHT22;17567;48.382;9.102;2023-02-28T12:17:18;1.10;99.90
30851;DHT22;17567;48.382;9.102;2023-02-28T12:27:20;1.40;99.90
30851;DHT22;17567;48.382;9.102;2023-02-28T12:32:31;1.40;99.90
30851;DHT22;17567;48.382;9.102;2023-02-28T12:37:54;1.90;99.90
30851;DHT22;17567;48.382;9.102;2023-02-28T12:43:03;2.00;99.90
30851;DHT22;17567;48.382;9.102;2023-02-28T12:48:08;2.00;99.90
30851;DHT22;17567;48.382;9.102;2023-02-28T13:08:57;4.00;99.90
30851;DHT22;17567;48.382;9.102;2023-02-28T13:14:03;4.70;99.90
30851;DHT22;17567;48.382;9.102;2023-02-28T13:19:10;5.30;99.90
30851;DHT22;17567;48.382;9.102;2023-02-28T13:29:39;5.00;99.90
30851;DHT22;17567;48.382;9.102;2023-02-28T13:55:27;5.10;99.90
30851;DHT22;17567;48.382;9.102;2023-02-28T14:00:49;5.30;99.90
30851;DHT22;17567;48.382;9.102;2023-02-28T14:11:34;6.10;99.90
30851;DHT22;17567;48.382;9.102;2023-02-28T14:32:58;6.20;99.90
30851;DHT22;17567;48.382;9.102;2023-02-28T14:38:05;6.20;99.90
30851;DHT22;17567;48.382;9.102;2023-02-28T14:43:23;6.00;99.90
30851;DHT22;17567;48.382;9.102;2023-02-28T14:48:25;6.40;99.90
30851;DHT22;17567;48.382;9.102;2023-02-28T14:53:35;6.80;99.90
30851;DHT22;17567;48.382;9.102;2023-02-28T14:58:36;7.00;99.90
30851;DHT22;17567;48.382;9.102;2023-02-28T15:03:39;7.20;99.90
30851;DHT22;17567;48.382;9.102;2023-02-28T15:08:40;7.80;99.90
30851;DHT22;17567;48.382;9.102;2023-02-28T15:13:44;7.90;99.90
30851;DHT22;17567;48.382;9.102;2023-02-28T15:18:50;8.00;99.90
30851;DHT22;17567;48.382;9.102;2023-02-28T15:24:18;7.70;99.90
30851;DHT22;17567;48.382;9.102;2023-02-28T15:29:25;7.60;99.90
30851;DHT22;17567;48.382;9.102;2023-02-28T15:34:39;7.60;99.90
30851;DHT22;17567;48.382;9.102;2023-02-28T15:39:43;7.90;99.90
30851;DHT22;17567;48.382;9.102;2023-02-28T15:44:45;7.00;99.90
30851;DHT22;17567;48.382;9.102;2023-02-28T15:49:49;7.20;99.90
30851;DHT22;17567;48.382;9.102;2023-02-28T15:54:51;6.50;99.90
30851;DHT22;17567;48.382;9.102;2023-02-28T15:59:57;6.30;99.90
30851;DHT22;17567;48.382;9.102;2023-02-28T16:10:26;6.10;99.90
30851;DHT22;17567;48.382;9.102;2023-02-28T16:15:30;6.20;99.90
30851;DHT22;17567;48.382;9.102;2023-02-28T16:20:31;6.10;99.90
30851;DHT22;17567;48.382;9.102;2023-02-28T16:25:38;6.10;99.90
30851;DHT22;17567;48.382;9.102;2023-02-28T16:30:39;6.10;99.90
30851;DHT22;17567;48.382;9.102;2023-02-28T16:35:40;5.60;99.90
30851;DHT22;17567;48.382;9.102;2023-02-28T16:40:41;5.20;99.90
30851;DHT22;17567;48.382;9.102;2023-02-28T16:45:41;4.70;99.90
30851;DHT22;17567;48.382;9.102;2023-02-28T16:50:42;4.30;99.90
30851;DHT22;17567;48.382;9.102;2023-02-28T16:55:46;4.10;99.90
30851;DHT22;17567;48.382;9.102;2023-02-28T17:00:48;4.00;99.90
30851;DHT22;17567;48.382;9.102;2023-02-28T17:05:49;3.80;99.90
30851;DHT22;17567;48.382;9.102;2023-02-28T17:10:50;3.50;99.90
30851;DHT22;17567;48.382;9.102;2023-02-28T17:15:50;3.40;99.90
30851;DHT22;17567;48.382;9.102;2023-02-28T17:20:51;2.80;99.90
30851;DHT22;17567;48.382;9.102;2023-02-28T17:25:52;2.50;99.90
30851;DHT22;17567;48.382;9.102;2023-02-28T17:30:55;2.40;99.90
30851;DHT22;17567;48.382;9.102;2023-02-28T17:35:55;2.40;99.90
30851;DHT22;17567;48.382;9.102;2023-02-28T17:40:57;2.20;99.90
30851;DHT22;17567;48.382;9.102;2023-02-28T17:45:57;2.10;99.90
30851;DHT22;17567;48.382;9.102;2023-02-28T17:50:58;1.40;99.90
30851;DHT22;17567;48.382;9.102;2023-02-28T17:55:59;1.40;99.90
30851;DHT22;17567;48.382;9.102;2023-02-28T18:00:59;1.10;99.90
30851;DHT22;17567;48.382;9.102;2023-02-28T18:06:00;1.00;99.90
30851;DHT22;17567;48.382;9.102;2023-02-28T18:11:02;0.80;99.90
30851;DHT22;17567;48.382;9.102;2023-02-28T18:16:02;0.50;99.90
30851;DHT22;17567;48.382;9.102;2023-02-28T18:21:05;0.70;99.90
30851;DHT22;17567;48.382;9.102;2023-02-28T18:26:07;0.70;99.90
30851;DHT22;17567;48.382;9.102;2023-02-28T18:31:09;0.50;99.90
30851;DHT22;17567;48.382;9.102;2023-02-28T18:36:11;0.20;99.90
30851;DHT22;17567;48.382;9.102;2023-02-28T18:41:12;0.00;99.90
30851;DHT22;17567;48.382;9.102;2023-02-28T18:46:16;-0.10;99.90
30851;DHT22;17567;48.382;9.102;2023-02-28T18:51:21;-0.20;99.90
30851;DHT22;17567;48.382;9.102;2023-02-28T18:56:23;-0.30;99.90
30851;DHT22;17567;48.382;9.102;2023-02-28T19:01:26;-0.50;99.90
30851;DHT22;17567;48.382;9.102;2023-02-28T19:06:32;-0.60;99.90
30851;DHT22;17567;48.382;9.102;2023-02-28T19:11:33;-0.70;99.90
30851;DHT22;17567;48.382;9.102;2023-02-28T19:16:34;-0.80;99.90
30851;DHT22;17567;48.382;9.102;2023-02-28T19:21:35;-1.00;99.90
30851;DHT22;17567;48.382;9.102;2023-02-28T19:26:35;-1.10;99.90
30851;DHT22;17567;48.382;9.102;2023-02-28T19:31:36;-1.20;99.90
30851;DHT22;17567;48.382;9.102;2023-02-28T19:36:37;-1.40;99.90
30851;DHT22;17567;48.382;9.102;2023-02-28T19:41:38;-1.50;99.90
30851;DHT22;17567;48.382;9.102;2023-02-28T19:46:38;-1.50;99.90
30851;DHT22;17567;48.382;9.102;2023-02-28T19:51:39;-1.50;99.90
30851;DHT22;17567;48.382;9.102;2023-02-28T19:56:40;-1.60;99.90
30851;DHT22;17567;48.382;9.102;2023-02-28T20:01:41;-1.70;99.90
30851;DHT22;17567;48.382;9.102;2023-02-28T20:06:41;-1.80;99.90
30851;DHT22;17567;48.382;9.102;2023-02-28T20:11:43;-1.90;99.90
30851;DHT22;17567;48.382;9.102;2023-02-28T20:16:44;-2.00;99.90
30851;DHT22;17567;48.382;9.102;2023-02-28T20:21:45;-2.10;99.90
30851;DHT22;17567;48.382;9.102;2023-02-28T20:26:46;-2.00;99.90
30851;DHT22;17567;48.382;9.102;2023-02-28T20:31:47;-2.10;99.90
30851;DHT22;17567;48.382;9.102;2023-02-28T20:36:48;-2.20;99.90
30851;DHT22;17567;48.382;9.102;2023-02-28T20:41:49;-2.30;99.90
30851;DHT22;17567;48.382;9.102;2023-02-28T20:46:49;-2.40;99.90
30851;DHT22;17567;48.382;9.102;2023-02-28T20:51:50;-2.40;99.90
30851;DHT22;17567;48.382;9.102;2023-02-28T20:56:50;-2.50;99.90
30851;DHT22;17567;48.382;9.102;2023-02-28T21:01:51;-2.60;99.90
30851;DHT22;17567;48.382;9.102;2023-02-28T21:06:55;-2.70;99.90
30851;DHT22;17567;48.382;9.102;2023-02-28T21:11:56;-2.80;99.90
30851;DHT22;17567;48.382;9.102;2023-02-28T21:16:56;-2.90;99.90
30851;DHT22;17567;48.382;9.102;2023-02-28T21:21:57;-3.10;99.90
30851;DHT22;17567;48.382;9.102;2023-02-28T21:26:58;-3.10;99.90
30851;DHT22;17567;48.382;9.102;2023-02-28T21:32:00;-2.90;99.90
30851;DHT22;17567;48.382;9.102;2023-02-28T21:37:01;-3.10;99.90
30851;DHT22;17567;48.382;9.102;2023-02-28T21:42:01;-3.20;99.90
30851;DHT22;17567;48.382;9.102;2023-02-28T21:47:03;-3.20;99.90
30851;DHT22;17567;48.382;9.102;2023-02-28T21:52:04;-3.30;99.90
30851;DHT22;17567;48.382;9.102;2023-02-28T21:57:05;-3.40;99.90
30851;DHT22;17567;48.382;9.102;2023-02-28T22:02:07;-3.30;99.90
30851;DHT22;17567;48.382;9.102;2023-02-28T22:07:09;-3.30;99.90
30851;DHT22;17567;48.382;9.102;2023-02-28T22:12:10;-3.40;99.90
30851;DHT22;17567;48.382;9.102;2023-02-28T22:17:11;-3.50;99.90
30851;DHT22;17567;48.382;9.102;2023-02-28T22:22:11;-3.50;99.90
30851;DHT22;17567;48.382;9.102;2023-02-28T22:27:12;-3.50;99.90
30851;DHT22;17567;48.382;9.102;2023-02-28T22:32:12;-3.60;99.90
30851;DHT22;17567;48.382;9.102;2023-02-28T22:37:14;-3.50;99.90
30851;DHT22;17567;48.382;9.102;2023-02-28T22:42:15;-3.60;99.90
30851;DHT22;17567;48.382;9.102;2023-02-28T22:47:15;-3.70;99.90
30851;DHT22;17567;48.382;9.102;2023-02-28T22:52:16;-3.80;99.90
30851;DHT22;17567;48.382;9.102;2023-02-28T22:57:17;-3.80;99.90
30851;DHT22;17567;48.382;9.102;2023-02-28T23:02:17;-4.00;99.90
30851;DHT22;17567;48.382;9.102;2023-02-28T23:07:18;-4.10;99.90
30851;DHT22;17567;48.382;9.102;2023-02-28T23:12:19;-4.00;99.90
30851;DHT22;17567;48.382;9.102;2023-02-28T23:17:19;-4.10;99.90
30851;DHT22;17567;48.382;9.102;2023-02-28T23:22:20;-4.10;99.90
30851;DHT22;17567;48.382;9.102;2023-02-28T23:27:20;-4.10;99.90
30851;DHT22;17567;48.382;9.102;2023-02-28T23:32:21;-4.10;99.90
30851;DHT22;17567;48.382;9.102;2023-02-28T23:37:21;-4.20;99.90
30851;DHT22;17567;48.382;9.102;2023-02-28T23:42:22;-4.30;99.90
30851;DHT22;17567;48.382;9.102;2023-02-28T23:47:23;-4.40;99.90
30851;DHT22;17567;48.382;9.102;2023-02-28T23:52:24;-4.30;99.90
30851;DHT22;17567;48.382;9.102;2023-02-28T23:57:25;-4.40;99.90
